createdAt,value
2017-09-27T00:00:07.699Z,138.60
2017-09-27T00:02:36.150Z,138.30
2017-09-27T00:05:04.582Z,137.47
2017-09-27T00:07:33.041Z,160.63
2017-09-27T00:10:01.530Z,162.13
2017-09-27T00:12:29.969Z,150.17
2017-09-27T00:14:58.496Z,127.70
2017-09-27T00:17:26.978Z,134.50
2017-09-27T00:19:55.412Z,121.60
2017-09-27T00:22:23.948Z,120.97
2017-09-27T00:24:52.379Z,123.20
2017-09-27T00:27:20.811Z,133.43
2017-09-27T00:29:49.287Z,145.83
2017-09-27T00:32:17.725Z,138.27
2017-09-27T00:34:46.251Z,138.23
2017-09-27T00:37:14.678Z,135.27
2017-09-27T00:39:43.220Z,136.30
2017-09-27T00:42:11.657Z,130.30
2017-09-27T00:44:40.179Z,134.63
2017-09-27T00:47:08.607Z,136.13
2017-09-27T00:49:37.149Z,134.20
2017-09-27T00:52:05.636Z,124.60
2017-09-27T00:54:34.089Z,127.67
2017-09-27T00:57:03.316Z,139.70
2017-09-27T00:59:31.751Z,119.97
2017-09-27T01:02:00.207Z,143.30
2017-09-27T01:04:28.651Z,129.97
2017-09-27T01:06:57.108Z,125.80
2017-09-27T01:09:26.336Z,149.50
2017-09-27T01:11:54.825Z,147.53
2017-09-27T01:14:23.263Z,130.37
2017-09-27T01:16:52.595Z,126.57
2017-09-27T01:19:21.023Z,133.43
2017-09-27T01:21:49.474Z,130.47
2017-09-27T01:24:17.912Z,136.03
2017-09-27T01:26:47.135Z,130.50
2017-09-27T01:29:15.627Z,116.37
2017-09-27T01:31:44.114Z,122.60
2017-09-27T01:34:12.596Z,148.63
2017-09-27T01:36:41.027Z,128.17
2017-09-27T01:39:09.484Z,127.67
2017-09-27T01:41:37.924Z,116.47
2017-09-27T01:44:06.411Z,116.33
2017-09-27T01:46:34.886Z,114.60
2017-09-27T01:49:03.327Z,127.93
2017-09-27T01:51:31.755Z,124.10
2017-09-27T01:54:00.239Z,122.10
2017-09-27T01:56:28.701Z,130.87
2017-09-27T01:58:58.025Z,125.20
2017-09-27T02:01:26.456Z,139.60
2017-09-27T02:03:54.984Z,130.20
2017-09-27T02:06:23.467Z,115.93
2017-09-27T02:08:51.899Z,130.77
2017-09-27T02:11:20.361Z,124.53
2017-09-27T02:13:48.807Z,145.60
2017-09-27T02:16:17.291Z,132.67
2017-09-27T02:18:45.719Z,153.23
2017-09-27T02:21:14.180Z,132.97
2017-09-27T02:23:42.635Z,125.10
2017-09-27T02:26:11.091Z,126.10
2017-09-27T02:28:40.315Z,129.87
2017-09-27T02:31:08.772Z,115.87
2017-09-27T02:33:37.998Z,130.83
2017-09-27T02:36:06.432Z,118.87
2017-09-27T02:38:34.895Z,107.10
2017-09-27T02:41:03.344Z,119.77
2017-09-27T02:43:31.839Z,102.27
2017-09-27T02:46:01.137Z,104.43
2017-09-27T02:48:29.607Z,120.77
2017-09-27T02:50:58.087Z,106.53
2017-09-27T02:53:26.575Z,117.03
2017-09-27T02:55:55.009Z,96.60
2017-09-27T02:58:23.539Z,117.77
2017-09-27T03:00:51.977Z,118.03
2017-09-27T03:03:20.432Z,108.13
2017-09-27T03:05:48.862Z,115.43
2017-09-27T03:08:18.182Z,109.83
2017-09-27T03:10:46.671Z,107.30
2017-09-27T03:13:15.365Z,112.07
2017-09-27T03:15:43.834Z,119.63
2017-09-27T03:18:12.315Z,110.43
2017-09-27T03:20:40.767Z,125.40
2017-09-27T03:23:09.967Z,130.30
2017-09-27T03:25:39.321Z,111.80
2017-09-27T03:28:07.749Z,113.83
2017-09-27T03:30:36.973Z,114.10
2017-09-27T03:33:05.459Z,121.17
2017-09-27T03:35:33.916Z,126.93
2017-09-27T03:38:03.112Z,128.07
2017-09-27T03:40:32.332Z,120.30
2017-09-27T03:43:00.829Z,133.13
2017-09-27T03:45:29.408Z,125.30
2017-09-27T03:47:57.887Z,120.70
2017-09-27T03:50:26.316Z,133.57
2017-09-27T03:52:54.847Z,112.87
2017-09-27T03:55:23.276Z,144.63
2017-09-27T03:57:51.738Z,129.87
2017-09-27T04:00:20.196Z,127.40
2017-09-27T04:02:48.692Z,127.93
2017-09-27T04:05:17.127Z,139.93
2017-09-27T04:07:46.455Z,126.00
2017-09-27T04:10:14.884Z,123.77
2017-09-27T04:12:43.336Z,108.87
2017-09-27T04:15:11.771Z,127.47
2017-09-27T04:17:41.347Z,128.97
2017-09-27T04:20:09.775Z,128.00
2017-09-27T04:22:38.980Z,118.13
2017-09-27T04:25:07.431Z,122.13
2017-09-27T04:27:35.866Z,120.27
2017-09-27T04:30:04.343Z,137.13
2017-09-27T04:32:32.832Z,123.50
2017-09-27T04:35:01.332Z,115.80
2017-09-27T04:37:29.767Z,132.40
2017-09-27T04:39:58.258Z,126.13
2017-09-27T04:42:26.747Z,128.43
2017-09-27T04:44:55.225Z,129.13
2017-09-27T04:47:23.668Z,138.27
2017-09-27T04:49:53.116Z,120.00
2017-09-27T04:52:21.556Z,126.73
2017-09-27T04:54:50.776Z,139.03
2017-09-27T04:57:20.091Z,121.40
2017-09-27T04:59:48.522Z,123.33
2017-09-27T05:02:16.980Z,143.50
2017-09-27T05:04:45.440Z,150.50
2017-09-27T05:07:13.928Z,124.27
2017-09-27T05:09:42.367Z,119.10
2017-09-27T05:12:11.610Z,136.20
2017-09-27T05:14:40.044Z,171.63
2017-09-27T05:17:08.479Z,141.20
2017-09-27T05:19:36.932Z,163.20
2017-09-27T05:22:05.358Z,141.30
2017-09-27T05:24:33.827Z,140.83
2017-09-27T05:27:02.264Z,128.73
2017-09-27T05:29:31.492Z,134.97
2017-09-27T05:31:59.969Z,129.20
2017-09-27T05:34:28.424Z,138.20
2017-09-27T05:36:57.623Z,156.80
2017-09-27T05:39:26.864Z,145.23
2017-09-27T05:41:55.328Z,143.17
2017-09-27T05:44:23.817Z,126.57
2017-09-27T05:46:52.309Z,160.33
2017-09-27T05:49:20.791Z,139.27
2017-09-27T05:51:49.244Z,139.33
2017-09-27T05:54:19.075Z,132.97
2017-09-27T05:56:47.535Z,144.33
2017-09-27T05:59:16.730Z,125.83
2017-09-27T06:01:46.056Z,169.23
2017-09-27T06:04:14.653Z,133.53
2017-09-27T06:06:43.134Z,134.73
2017-09-27T06:09:11.576Z,138.97
2017-09-27T06:11:40.775Z,120.73
2017-09-27T06:14:09.991Z,121.57
2017-09-27T06:16:38.489Z,145.53
2017-09-27T06:19:06.979Z,145.23
2017-09-27T06:21:35.452Z,138.80
2017-09-27T06:24:03.924Z,116.10
2017-09-27T06:26:32.367Z,132.33
2017-09-27T06:31:58.230Z,124.43
2017-09-27T06:34:27.463Z,124.30
2017-09-27T06:36:55.913Z,149.37
2017-09-27T06:39:25.150Z,124.07
2017-09-27T06:41:53.598Z,133.27
2017-09-27T06:44:22.089Z,123.03
2017-09-27T06:46:50.593Z,130.37
2017-09-27T06:49:19.041Z,123.43
2017-09-27T06:51:48.281Z,129.87
2017-09-27T06:54:16.737Z,111.90
2017-09-27T06:56:45.211Z,141.03
2017-09-27T06:59:13.662Z,108.30
2017-09-27T07:01:42.202Z,118.73
2017-09-27T07:04:10.686Z,116.37
2017-09-27T07:06:39.882Z,105.03
2017-09-27T07:09:08.330Z,137.47
2017-09-27T07:11:37.567Z,90.77
2017-09-27T07:14:06.042Z,92.90
2017-09-27T07:16:34.531Z,94.80
2017-09-27T07:19:03.422Z,105.73
2017-09-27T07:21:31.902Z,104.90
2017-09-27T07:24:00.481Z,93.30
2017-09-27T07:26:28.946Z,103.90
2017-09-27T07:28:57.417Z,106.07
2017-09-27T07:31:26.626Z,102.03
2017-09-27T07:33:55.135Z,91.43
2017-09-27T07:36:23.586Z,95.83
2017-09-27T07:38:52.638Z,84.57
2017-09-27T07:41:21.086Z,103.57
2017-09-27T07:43:49.574Z,88.43
2017-09-27T07:46:18.021Z,87.30
2017-09-27T07:48:46.518Z,103.60
2017-09-27T07:51:14.962Z,91.20
2017-09-27T07:53:43.418Z,82.40
2017-09-27T07:56:11.982Z,74.27
2017-09-27T07:58:40.424Z,86.10
2017-09-27T08:01:09.662Z,82.67
2017-09-27T08:03:38.144Z,86.97
2017-09-27T08:06:06.720Z,86.87
2017-09-27T08:08:35.166Z,74.47
2017-09-27T08:11:05.021Z,77.10
2017-09-27T08:13:33.477Z,93.70
2017-09-27T08:16:01.994Z,77.80
2017-09-27T08:18:30.445Z,80.80
2017-09-27T08:20:58.889Z,68.83
2017-09-27T08:23:28.868Z,74.10
2017-09-27T08:25:57.318Z,74.67
2017-09-27T08:28:26.553Z,76.10
2017-09-27T08:30:55.033Z,63.90
2017-09-27T08:33:23.617Z,64.73
2017-09-27T08:35:52.285Z,51.57
2017-09-27T08:38:20.785Z,70.23
2017-09-27T08:40:49.228Z,68.17
2017-09-27T08:43:18.462Z,57.20
2017-09-27T08:45:46.901Z,78.20
2017-09-27T08:48:16.245Z,61.43
2017-09-27T08:50:44.730Z,62.17
2017-09-27T08:53:13.177Z,77.63
2017-09-27T08:55:42.513Z,64.30
2017-09-27T08:58:10.999Z,58.77
2017-09-27T09:00:39.581Z,66.90
2017-09-27T09:03:08.027Z,65.53
2017-09-27T09:05:37.363Z,56.03
2017-09-27T09:08:05.846Z,56.70
2017-09-27T09:10:34.314Z,65.33
2017-09-27T09:13:02.761Z,75.43
2017-09-27T09:15:32.106Z,68.43
2017-09-27T09:18:00.553Z,54.37
2017-09-27T09:20:29.813Z,60.53
2017-09-27T09:22:58.250Z,56.00
2017-09-27T09:25:26.751Z,61.27
2017-09-27T09:27:55.230Z,54.40
2017-09-27T09:30:23.672Z,61.00
2017-09-27T09:32:53.022Z,53.87
2017-09-27T09:35:21.498Z,63.57
2017-09-27T09:37:49.984Z,63.17
2017-09-27T09:40:18.429Z,61.23
2017-09-27T09:42:47.768Z,66.33
2017-09-27T09:45:16.213Z,62.87
2017-09-27T09:47:45.469Z,60.10
2017-09-27T09:50:13.914Z,80.27
2017-09-27T09:52:42.359Z,48.97
2017-09-27T09:55:10.825Z,67.33
2017-09-27T09:57:40.778Z,50.43
2017-09-27T10:00:10.007Z,59.10
2017-09-27T10:02:38.491Z,54.77
2017-09-27T10:05:07.076Z,55.10
2017-09-27T10:07:35.560Z,42.40
2017-09-27T10:10:04.142Z,60.70
2017-09-27T10:12:32.594Z,52.13
2017-09-27T10:15:01.925Z,50.23
2017-09-27T10:17:30.408Z,50.67
2017-09-27T10:19:58.900Z,69.10
2017-09-27T10:22:27.470Z,54.40
2017-09-27T10:24:55.922Z,49.03
2017-09-27T10:27:25.254Z,39.40
2017-09-27T10:29:53.739Z,69.23
2017-09-27T10:32:22.209Z,60.67
2017-09-27T10:34:50.659Z,47.57
2017-09-27T10:37:20.006Z,49.90
2017-09-27T10:39:48.450Z,39.70
2017-09-27T10:42:17.793Z,40.97
2017-09-27T10:44:46.306Z,39.80
2017-09-27T10:47:14.776Z,39.47
2017-09-27T10:49:43.331Z,43.90
2017-09-27T10:52:11.784Z,49.70
2017-09-27T10:54:41.012Z,53.43
2017-09-27T10:57:09.458Z,41.37
2017-09-27T10:59:38.689Z,38.70
2017-09-27T11:02:07.181Z,45.37
2017-09-27T11:04:35.657Z,43.23
2017-09-27T11:07:04.144Z,45.03
2017-09-27T11:09:32.728Z,45.33
2017-09-27T11:12:01.182Z,54.57
2017-09-27T11:14:29.662Z,43.10
2017-09-27T11:16:58.176Z,45.03
2017-09-27T11:19:26.658Z,48.80
2017-09-27T11:21:55.105Z,41.80
2017-09-27T11:24:24.533Z,49.93
2017-09-27T11:26:53.010Z,66.33
2017-09-27T11:29:21.458Z,45.70
2017-09-27T11:31:50.699Z,39.67
2017-09-27T11:34:19.198Z,49.40
2017-09-27T11:36:47.663Z,36.37
2017-09-27T11:39:16.151Z,41.33
2017-09-27T11:41:44.613Z,32.77
2017-09-27T11:44:13.059Z,43.40
2017-09-27T11:46:43.128Z,42.57
2017-09-27T11:49:11.609Z,37.03
2017-09-27T11:51:40.077Z,45.50
2017-09-27T11:54:08.529Z,44.27
2017-09-27T11:56:37.785Z,44.93
2017-09-27T11:59:06.360Z,31.23
2017-09-27T12:01:34.811Z,37.97
2017-09-27T12:04:04.046Z,42.30
2017-09-27T12:06:32.525Z,37.40
2017-09-27T12:09:00.998Z,39.13
2017-09-27T12:11:29.453Z,42.50
2017-09-27T12:13:58.693Z,33.27
2017-09-27T12:16:27.171Z,32.17
2017-09-27T12:18:55.754Z,34.63
2017-09-27T12:21:24.237Z,27.00
2017-09-27T12:23:52.698Z,18.43
2017-09-27T12:26:21.204Z,31.03
2017-09-27T12:28:49.779Z,31.50
2017-09-27T12:31:18.229Z,36.90
2017-09-27T12:33:47.466Z,38.60
2017-09-27T12:36:15.938Z,29.67
2017-09-27T12:38:44.397Z,25.20
2017-09-27T12:41:13.630Z,21.70
2017-09-27T12:43:42.588Z,31.17
2017-09-27T12:46:11.924Z,32.77
2017-09-27T12:48:41.226Z,29.67
2017-09-27T12:51:09.694Z,50.90
2017-09-27T12:53:38.181Z,33.37
2017-09-27T12:56:06.649Z,37.77
2017-09-27T12:58:35.099Z,25.13
2017-09-27T13:01:03.631Z,27.93
2017-09-27T13:03:32.103Z,34.63
2017-09-27T13:06:00.570Z,25.10
2017-09-27T13:08:29.009Z,25.00
2017-09-27T13:10:57.558Z,25.20
2017-09-27T13:13:26.005Z,37.43
2017-09-27T13:15:55.244Z,29.60
2017-09-27T13:18:23.825Z,27.80
2017-09-27T13:20:52.278Z,33.67
2017-09-27T13:23:21.544Z,27.60
2017-09-27T13:25:49.991Z,31.53
2017-09-27T13:28:18.453Z,23.57
2017-09-27T13:30:46.957Z,24.90
2017-09-27T13:33:15.535Z,39.93
2017-09-27T13:35:43.977Z,37.93
2017-09-27T13:38:13.317Z,29.30
2017-09-27T13:40:41.761Z,36.03
2017-09-27T13:43:10.999Z,32.30
2017-09-27T13:45:39.437Z,40.37
2017-09-27T13:48:08.782Z,22.07
2017-09-27T13:50:37.270Z,26.43
2017-09-27T13:53:05.753Z,33.37
2017-09-27T13:55:34.536Z,20.77
2017-09-27T13:58:03.022Z,27.60
2017-09-27T14:00:31.539Z,25.03
2017-09-27T14:02:59.990Z,27.30
2017-09-27T14:05:28.453Z,40.73
2017-09-27T14:07:56.902Z,27.67
2017-09-27T14:10:26.121Z,23.50
2017-09-27T14:12:54.633Z,26.53
2017-09-27T14:15:23.326Z,32.40
2017-09-27T14:17:51.806Z,32.87
2017-09-27T14:20:20.294Z,33.87
2017-09-27T14:22:48.749Z,36.17
2017-09-27T14:25:17.246Z,31.67
2017-09-27T14:27:45.686Z,27.80
2017-09-27T14:30:14.918Z,24.67
2017-09-27T14:32:43.413Z,34.83
2017-09-27T14:35:11.994Z,27.57
2017-09-27T14:37:40.442Z,34.37
2017-09-27T14:40:09.674Z,30.57
2017-09-27T14:42:38.146Z,37.43
2017-09-27T14:45:06.602Z,23.77
2017-09-27T14:47:35.832Z,28.13
2017-09-27T14:50:04.277Z,24.87
2017-09-27T14:52:33.619Z,26.43
2017-09-27T14:55:02.062Z,26.50
2017-09-27T14:57:31.403Z,25.13
2017-09-27T14:59:59.850Z,36.07
2017-09-27T15:02:29.086Z,31.53
2017-09-27T15:04:57.566Z,24.77
2017-09-27T15:07:26.038Z,30.57
2017-09-27T15:09:54.486Z,22.93
2017-09-27T15:12:23.830Z,28.40
2017-09-27T15:14:52.313Z,22.67
2017-09-27T15:17:20.795Z,30.30
2017-09-27T15:19:49.268Z,33.80
2017-09-27T15:22:17.762Z,23.27
2017-09-27T15:24:46.230Z,29.90
2017-09-27T15:27:14.677Z,25.83
2017-09-27T15:29:43.906Z,23.23
2017-09-27T15:32:12.357Z,24.23
2017-09-27T15:34:41.594Z,23.73
2017-09-27T15:37:10.042Z,19.30
2017-09-27T15:39:39.277Z,40.13
2017-09-27T15:42:07.766Z,26.77
2017-09-27T15:44:37.057Z,32.90
2017-09-27T15:47:05.514Z,28.00
2017-09-27T15:49:34.747Z,26.10
2017-09-27T15:52:03.198Z,25.80
2017-09-27T15:54:32.533Z,29.73
2017-09-27T15:57:00.978Z,30.60
2017-09-27T15:59:30.210Z,22.67
2017-09-27T16:01:58.682Z,24.37
2017-09-27T16:04:27.137Z,22.77
2017-09-27T16:06:56.378Z,19.20
2017-09-27T16:09:24.863Z,19.00
2017-09-27T16:11:53.330Z,20.87
2017-09-27T16:14:21.782Z,20.23
2017-09-27T16:16:51.015Z,20.50
2017-09-27T16:19:19.462Z,30.63
2017-09-27T16:21:48.803Z,18.50
2017-09-27T16:24:17.250Z,22.23
2017-09-27T16:26:46.590Z,40.53
2017-09-27T16:29:15.037Z,27.83
2017-09-27T16:31:43.506Z,20.47
2017-09-27T16:34:12.720Z,22.77
2017-09-27T16:36:41.230Z,20.27
2017-09-27T16:39:09.713Z,20.33
2017-09-27T16:41:38.185Z,21.83
2017-09-27T16:44:06.678Z,29.53
2017-09-27T16:46:35.261Z,25.93
2017-09-27T16:49:03.750Z,15.67
2017-09-27T16:51:32.227Z,31.07
2017-09-27T16:54:00.809Z,24.90
2017-09-27T16:56:29.286Z,23.40
2017-09-27T16:58:57.758Z,19.90
2017-09-27T17:01:26.201Z,18.93
2017-09-27T17:03:55.437Z,19.13
2017-09-27T17:06:23.938Z,21.27
2017-09-27T17:08:52.407Z,26.00
2017-09-27T17:11:20.899Z,30.83
2017-09-27T17:13:49.483Z,29.53
2017-09-27T17:16:17.931Z,27.77
2017-09-27T17:18:47.165Z,23.17
2017-09-27T17:21:15.751Z,27.70
2017-09-27T17:23:44.242Z,24.83
2017-09-27T17:26:12.713Z,41.47
2017-09-27T17:28:41.194Z,28.57
2017-09-27T17:31:09.657Z,27.77
2017-09-27T17:33:38.159Z,21.70
2017-09-27T17:36:06.625Z,32.23
2017-09-27T17:38:35.118Z,38.70
2017-09-27T17:41:03.594Z,27.33
2017-09-27T17:43:32.089Z,20.00
2017-09-27T17:46:00.598Z,27.50
2017-09-27T17:48:29.041Z,28.10
2017-09-27T17:50:57.636Z,29.43
2017-09-27T17:53:26.302Z,25.83
2017-09-27T17:55:54.804Z,21.03
2017-09-27T17:58:23.255Z,20.33
2017-09-27T18:00:52.490Z,38.37
2017-09-27T18:03:20.929Z,22.13
2017-09-27T18:05:55.767Z,19.80
2017-09-27T18:08:29.073Z,20.20
2017-09-27T18:11:02.921Z,26.20
2017-09-27T18:13:36.357Z,26.60
2017-09-27T18:16:11.053Z,24.33
2017-09-27T18:18:44.677Z,23.30
2017-09-27T18:21:13.142Z,35.13
2017-09-27T18:23:41.586Z,40.50
2017-09-27T18:26:10.049Z,22.97
2017-09-27T18:28:38.489Z,26.57
2017-09-27T18:31:06.960Z,26.20
2017-09-27T18:33:35.417Z,23.30
2017-09-27T18:36:03.906Z,25.57
2017-09-27T18:38:32.349Z,21.57
2017-09-27T18:41:01.575Z,19.70
2017-09-27T18:43:30.041Z,29.20
2017-09-27T18:45:58.490Z,37.80
2017-09-27T18:48:27.731Z,27.10
2017-09-27T18:50:56.183Z,29.83
2017-09-27T18:53:25.417Z,22.37
2017-09-27T18:55:53.876Z,19.70
2017-09-27T18:58:22.341Z,28.67
2017-09-27T19:00:51.554Z,22.10
2017-09-27T19:03:20.886Z,24.60
2017-09-27T19:05:49.333Z,34.20
2017-09-27T19:08:18.670Z,32.27
2017-09-27T19:10:47.147Z,27.73
2017-09-27T19:13:15.618Z,20.43
2017-09-27T19:15:44.070Z,21.60
2017-09-27T19:18:13.308Z,22.60
2017-09-27T19:20:41.807Z,23.03
2017-09-27T19:23:10.390Z,26.70
2017-09-27T19:25:38.866Z,23.50
2017-09-27T19:28:07.452Z,27.50
2017-09-27T19:30:36.442Z,25.60
2017-09-27T19:33:04.885Z,31.30
2017-09-27T19:35:34.119Z,30.50
2017-09-27T19:38:02.573Z,30.90
2017-09-27T19:40:31.806Z,19.17
2017-09-27T19:43:00.253Z,24.67
2017-09-27T19:45:29.485Z,20.37
2017-09-27T19:47:57.962Z,27.30
2017-09-27T19:50:26.545Z,20.30
2017-09-27T19:52:55.005Z,22.40
2017-09-27T19:55:23.493Z,27.77
2017-09-27T19:57:51.933Z,37.67
2017-09-27T20:00:20.401Z,20.60
2017-09-27T20:02:48.846Z,18.80
2017-09-27T20:05:17.335Z,22.57
2017-09-27T20:07:45.786Z,21.97
2017-09-27T20:10:15.021Z,30.20
2017-09-27T20:12:43.491Z,22.83
2017-09-27T20:15:11.934Z,18.37
2017-09-27T20:17:41.170Z,24.77
2017-09-27T20:20:09.613Z,27.33
2017-09-27T20:22:38.968Z,28.43
2017-09-27T20:25:07.414Z,22.33
2017-09-27T20:27:35.935Z,24.27
2017-09-27T20:30:04.385Z,22.57
2017-09-27T20:32:32.858Z,28.27
2017-09-27T20:35:02.070Z,29.80
2017-09-27T20:37:30.538Z,32.40
2017-09-27T20:39:59.750Z,23.23
2017-09-27T20:42:28.222Z,23.97
2017-09-27T20:44:57.458Z,21.67
2017-09-27T20:47:26.041Z,28.60
2017-09-27T20:49:54.522Z,27.43
2017-09-27T20:52:22.965Z,20.77
2017-09-27T20:54:52.306Z,25.60
2017-09-27T20:57:20.754Z,34.13
2017-09-27T20:59:50.088Z,24.83
2017-09-27T21:02:18.575Z,28.30
2017-09-27T21:04:47.155Z,27.10
2017-09-27T21:07:15.638Z,29.33
2017-09-27T21:09:44.221Z,33.93
2017-09-27T21:12:12.668Z,33.40
2017-09-27T21:14:41.999Z,28.20
2017-09-27T21:17:10.486Z,30.43
2017-09-27T21:19:39.071Z,30.80
2017-09-27T21:22:07.553Z,33.20
2017-09-27T21:24:36.034Z,37.90
2017-09-27T21:27:04.482Z,24.93
2017-09-27T21:29:33.817Z,27.43
2017-09-27T21:32:02.308Z,21.20
2017-09-27T21:34:30.782Z,25.83
2017-09-27T21:36:59.234Z,28.23
2017-09-27T21:39:27.673Z,22.30
2017-09-27T21:41:56.154Z,29.03
2017-09-27T21:44:25.318Z,23.27
2017-09-27T21:46:53.794Z,26.00
2017-09-27T21:49:22.283Z,33.10
2017-09-27T21:51:50.770Z,21.27
2017-09-27T21:54:19.252Z,29.63
2017-09-27T21:56:47.717Z,27.53
2017-09-27T21:59:16.162Z,25.33
2017-09-27T22:01:44.625Z,29.50
2017-09-27T22:04:13.181Z,23.07
2017-09-27T22:06:41.764Z,23.60
2017-09-27T22:09:10.247Z,28.20
2017-09-27T22:11:38.737Z,26.47
2017-09-27T22:14:07.206Z,24.10
2017-09-27T22:16:35.692Z,24.50
2017-09-27T22:19:04.166Z,30.53
2017-09-27T22:21:32.723Z,27.07
2017-09-27T22:24:02.060Z,35.53
2017-09-27T22:26:30.505Z,28.07
2017-09-27T22:28:59.742Z,22.97
2017-09-27T22:31:28.225Z,38.00
2017-09-27T22:33:56.687Z,29.70
2017-09-27T22:36:25.124Z,22.27
2017-09-27T22:38:55.204Z,32.13
2017-09-27T22:41:23.650Z,27.73
2017-09-27T22:43:52.955Z,26.00
2017-09-27T22:46:22.170Z,37.27
2017-09-27T22:48:50.666Z,25.67
2017-09-27T22:51:19.110Z,23.70
2017-09-27T22:53:48.452Z,29.50
2017-09-27T22:56:16.897Z,36.27
2017-09-27T22:58:46.125Z,31.20
2017-09-27T23:01:14.597Z,22.70
2017-09-27T23:03:43.091Z,27.30
2017-09-27T23:06:11.557Z,31.87
2017-09-27T23:08:40.002Z,21.47
2017-09-27T23:11:08.474Z,24.50
2017-09-27T23:13:36.923Z,30.53
2017-09-27T23:16:05.405Z,24.13
2017-09-27T23:18:33.848Z,29.23
2017-09-27T23:21:03.087Z,31.33
2017-09-27T23:23:32.391Z,38.03
2017-09-27T23:26:00.970Z,25.83
2017-09-27T23:28:29.450Z,22.80
2017-09-27T23:30:57.926Z,27.03
2017-09-27T23:33:27.998Z,28.03
2017-09-27T23:35:56.492Z,29.03
2017-09-27T23:38:25.748Z,21.47
2017-09-27T23:40:54.193Z,32.03
2017-09-27T23:43:22.659Z,23.53
2017-09-27T23:45:51.869Z,24.80
2017-09-27T23:48:20.338Z,20.60
2017-09-27T23:50:49.581Z,30.00
2017-09-27T23:53:18.062Z,22.37
2017-09-27T23:55:46.549Z,30.93
2017-09-27T23:58:15.018Z,25.23
